Time;durP1;ratioP1;P1;durP2;ratioP2;P2;SDS_P1;SDS_P2;PMS_P1;PMS_P2;Temp;Humidity;BMP_temperature;BMP_pressure;BME280_temperature;BME280_humidity;BME280_pressure;Samples;Min_cycle;Max_cycle;Signal;HPM_P1;HPM_P2
2021/12/14 00:00:17;;;;;;;;;;;;;;;;;;;;;
2021/12/14 00:03:09;;;;;;;6.40;2.80;;;;;;;2.51;73.60;93318.16;5013492;28;20045;-89
2021/12/14 00:05:57;;;;;;;9.30;3.60;;;;;;;2.68;73.48;93339.84;5017674;28;20041;-94
2021/12/14 00:08:34;;;;;;;5.95;2.90;;;;;;;2.27;73.15;93278.44;5002393;28;20056;-90
2021/12/14 00:11:46;;;;;;;6.03;2.85;;;;;;;2.27;73.27;93284.41;4998620;28;20041;-87
2021/12/14 00:18:02;;;;;;;3.30;1.77;;;;;;;2.52;74.27;93319.72;4995669;28;20049;-88
2021/12/14 00:21:12;;;;;;;;;;;;;;;;;;;;;
2021/12/14 00:24:21;;;;;;;;;;;;;;;;;;;;;
2021/12/14 00:27:24;;;;;;;;;;;;;;;;;;;;;
2021/12/14 00:30:35;;;;;;;3.38;1.70;;;;;;;2.33;75.38;93310.41;4997130;28;20150;-89
2021/12/14 00:33:31;;;;;;;;;;;;;;;;;;;;;
2021/12/14 00:36:26;;;;;;;;;;;;;;;;;;;;;
2021/12/14 00:39:38;;;;;;;;;;;;;;;;;;;;;
2021/12/14 00:42:12;;;;;;;3.78;1.92;;;;;;;2.18;76.25;93316.69;4991285;28;20068;-88
2021/12/14 00:44:57;;;;;;;5.05;2.10;;;;;;;2.01;76.21;93297.59;4976184;28;20047;-88
2021/12/14 00:47:39;;;;;;;3.80;1.80;;;;;;;1.96;76.22;93290.50;4992250;28;20037;-88
2021/12/14 00:50:27;;;;;;;3.83;2.17;;;;;;;1.99;76.75;93297.03;4992425;28;20046;-89
2021/12/14 00:53:11;;;;;;;4.85;2.00;;;;;;;2.15;76.70;93324.88;4975405;28;20046;-87
2021/12/14 00:55:50;;;;;;;4.50;1.98;;;;;;;1.98;76.23;93298.81;4991677;28;20042;-87
2021/12/14 00:58:32;;;;;;;5.15;2.10;;;;;;;2.04;76.28;93302.31;4975938;28;20554;-88
2021/12/14 01:01:20;;;;;;;5.03;2.45;;;;;;;2.31;76.13;93341.59;4973415;28;20053;-88
2021/12/14 01:04:25;;;;;;;4.35;2.20;;;;;;;2.03;76.37;93298.19;5012542;28;20033;-91
2021/12/14 01:07:17;;;;;;;10.30;3.58;;;;;;;2.29;77.29;93310.81;4979231;28;20513;-88
2021/12/14 01:10:16;;;;;;;5.55;2.92;;;;;;;2.45;76.07;93331.91;4995517;28;20046;-88
2021/12/14 01:12:58;;;;;;;8.18;2.80;;;;;;;2.12;75.42;93281.41;4993803;28;20038;-88
2021/12/14 01:15:52;;;;;;;5.60;2.63;;;;;;;2.09;76.35;93292.13;4976721;28;20073;-88
2021/12/14 01:18:47;;;;;;;4.00;2.10;;;;;;;2.38;76.25;93347.50;4978179;28;20034;-87
2021/12/14 01:21:56;;;;;;;6.57;2.65;;;;;;;1.98;76.65;93292.84;4994883;28;20037;-88
2021/12/14 01:28:42;;;;;;;5.18;2.10;;;;;;;2.08;76.30;93332.69;5009614;28;20046;-87
2021/12/14 01:31:29;;;;;;;4.15;1.83;;;;;;;2.24;76.77;93362.34;4993885;28;20038;-87
2021/12/14 01:37:40;;;;;;;3.30;1.45;;;;;;;2.06;76.38;93337.25;4998404;28;20064;-88
2021/12/14 01:40:19;;;;;;;4.03;1.90;;;;;;;1.88;76.26;93307.03;4996010;28;20096;-87
2021/12/14 01:43:46;;;;;;;;;;;;;;;;;;;;;
2021/12/14 01:46:29;;;;;;;2.80;1.48;;;;;;;2.15;76.30;93353.28;5013779;28;20093;-89
2021/12/14 01:49:33;;;;;;;4.35;2.10;;;;;;;2.30;76.63;93376.22;4997982;28;20109;-87
2021/12/14 01:52:32;;;;;;;4.03;1.80;;;;;;;2.05;76.65;93338.28;4993947;28;20480;-88
2021/12/14 01:55:38;;;;;;;;;;;;;;;;;;;;;
2021/12/14 01:58:41;;;;;;;;;;;;;;;;;;;;;
2021/12/14 02:01:47;;;;;;;3.60;1.67;;;;;;;2.06;76.66;93313.25;5002981;28;20038;-88
2021/12/14 02:04:51;;;;;;;;;;;;;;;;;;;;;
2021/12/14 02:07:50;;;;;;;2.65;1.23;;;;;;;2.22;76.45;93328.16;4976124;28;20047;-87
2021/12/14 02:10:38;;;;;;;2.67;1.33;;;;;;;2.04;76.04;93305.69;4959927;28;20069;-87
2021/12/14 02:13:22;;;;;;;;;;;;;;;;;;;;;
2021/12/14 02:16:24;;;;;;;3.25;1.42;;;;;;;2.07;76.68;93310.44;4944868;28;20047;-88
2021/12/14 02:19:03;;;;;;;2.42;1.33;;;;;;;2.34;76.18;93342.97;4955357;29;20051;-88
2021/12/14 02:21:51;;;;;;;2.97;1.40;;;;;;;2.27;75.74;93325.75;4939679;29;20147;-88
2021/12/14 02:28:29;;;;;;;2.53;1.30;;;;;;;2.45;76.10;93344.84;4961001;28;20121;-87
2021/12/14 02:31:17;;;;;;;4.65;1.60;;;;;;;2.20;76.18;93303.56;4972899;28;20038;-87
2021/12/14 02:34:02;;;;;;;3.42;1.45;;;;;;;2.40;76.12;93334.38;4960328;28;20045;-90
2021/12/14 02:36:58;;;;;;;3.80;1.33;;;;;;;2.12;76.48;93286.56;4975117;28;20506;-87
2021/12/14 02:42:24;;;;;;;2.05;1.10;;;;;;;2.13;76.06;93280.38;4958717;28;20046;-87
2021/12/14 02:45:02;;;;;;;1.90;1.15;;;;;;;2.25;75.83;93294.19;4955850;29;20035;-87
2021/12/14 02:47:34;;;;;;;2.60;1.30;;;;;;;2.11;76.27;93279.78;4967647;28;20042;-87
2021/12/14 02:50:37;;;;;;;1.65;1.13;;;;;;;2.35;76.33;93321.31;4960116;28;20049;-88
2021/12/14 02:53:39;;;;;;;2.55;1.15;;;;;;;2.19;76.21;93297.59;4959829;28;20047;-88
2021/12/14 02:56:27;;;;;;;1.45;1.02;;;;;;;2.23;76.57;93303.13;4976216;28;20057;-87
2021/12/14 02:59:36;;;;;;;3.30;1.23;;;;;;;2.51;75.67;93336.22;4967740;28;20038;-88
2021/12/14 03:02:31;;;;;;;;;;;;;;;;;;;;;
2021/12/14 03:05:15;;;;;;;2.85;1.25;;;;;;;2.12;75.70;93283.16;4978111;28;20129;-87
2021/12/14 03:08:12;;;;;;;2.30;1.20;;;;;;;2.12;75.59;93281.41;4978521;28;20038;-87
2021/12/14 03:11:18;;;;;;;2.70;1.35;;;;;;;2.39;75.36;93319.88;4963453;28;20039;-88
2021/12/14 03:14:00;;;;;;;2.08;1.10;;;;;;;2.23;75.36;93296.19;4979138;28;20038;-90
2021/12/14 03:16:44;;;;;;;3.17;1.40;;;;;;;2.29;75.15;93302.28;4978115;28;20038;-87
2021/12/14 03:19:42;;;;;;;2.45;1.30;;;;;;;2.20;75.40;93294.00;4992238;28;20064;-87
2021/12/14 03:22:44;;;;;;;1.33;0.95;;;;;;;2.22;75.72;93288.63;4949109;28;20475;-87
2021/12/14 03:25:43;;;;;;;2.83;1.20;;;;;;;2.16;75.85;93277.38;4978988;28;20044;-87
2021/12/14 03:28:45;;;;;;;1.52;1.08;;;;;;;2.31;76.23;93308.00;4974571;28;20069;-88
2021/12/14 03:31:31;;;;;;;2.05;1.20;;;;;;;2.20;76.06;93275.94;4958930;28;20125;-87
2021/12/14 03:34:30;;;;;;;2.47;1.13;;;;;;;2.55;76.20;93321.88;4978535;28;20125;-87
2021/12/14 03:37:28;;;;;;;2.28;1.23;;;;;;;2.30;75.75;93293.53;4962020;28;20030;-87
2021/12/14 03:40:51;;;;;;;1.88;1.10;;;;;;;2.25;75.85;93286.44;4963917;28;20132;-87
2021/12/14 03:44:34;;;;;;;2.92;1.30;;;;;;;2.36;75.92;93307.38;5011599;28;20090;-93
2021/12/14 03:51:01;;;;;;;1.90;1.20;;;;;;;2.51;75.31;93336.22;5009705;28;20451;-87
2021/12/14 03:53:26;;;;;;;2.58;1.27;;;;;;;2.28;75.74;93290.38;4961361;28;20351;-87
2021/12/14 03:56:07;;;;;;;;;;;;;;;;;;;;;
2021/12/14 04:02:07;;;;;;;1.05;0.80;;;;;;;2.43;75.34;93328.75;4960658;28;20043;-87
2021/12/14 04:05:09;;;;;;;2.58;1.23;;;;;;;2.19;75.09;93273.56;4958863;28;20043;-88
2021/12/14 04:07:53;;;;;;;1.10;0.90;;;;;;;2.23;74.94;93283.25;4972085;28;20105;-86
2021/12/14 04:11:02;;;;;;;;;;;;;;;;;;;;;
2021/12/14 04:13:54;;;;;;;;;;;;;;;;;;;;;
2021/12/14 04:16:51;;;;;;;1.95;1.10;;;;;;;2.20;74.98;93275.94;4966644;28;20043;-87
2021/12/14 04:19:36;;;;;;;1.40;0.90;;;;;;;2.27;74.94;93279.25;4941766;28;20089;-88
2021/12/14 04:22:52;;;;;;;;;;;;;;;;;;;;;
2021/12/14 04:25:50;;;;;;;2.05;1.13;;;;;;;2.41;74.60;93289.41;4971235;28;20142;-87
2021/12/14 04:29:06;;;;;;;1.80;1.15;;;;;;;2.47;74.28;93288.56;4955401;28;20043;-88
2021/12/14 04:32:26;;;;;;;1.65;1.00;;;;;;;2.52;74.25;93299.03;4956007;28;20039;-87
2021/12/14 04:35:04;;;;;;;1.20;0.88;;;;;;;2.34;74.79;93279.16;4951714;29;20051;-87
2021/12/14 04:37:43;;;;;;;2.03;1.20;;;;;;;2.69;74.68;93338.81;4922097;29;20094;-88
2021/12/14 04:55:20;;;;;;;1.92;1.05;;;;;;;2.24;74.50;93284.84;4943280;28;20041;-90
2021/12/14 04:57:54;;;;;;;1.27;0.98;;;;;;;2.32;74.51;93288.94;4969457;28;20042;-87
2021/12/14 05:00:38;;;;;;;1.20;0.80;;;;;;;2.53;74.28;93316.13;4955996;28;20130;-90
2021/12/14 05:03:39;;;;;;;1.23;0.90;;;;;;;2.51;74.16;93310.38;4965700;28;20042;-88
2021/12/14 05:09:21;;;;;;;6.72;0.95;;;;;;;2.56;74.24;93328.63;4997839;28;20038;-87
2021/12/14 05:12:35;;;;;;;1.08;0.80;;;;;;;2.46;74.01;93318.78;4982520;28;20044;-88
2021/12/14 05:15:26;;;;;;;1.20;0.98;;;;;;;2.62;74.02;93338.09;4917024;29;20505;-89
2021/12/14 05:18:27;;;;;;;1.45;0.90;;;;;;;2.35;73.74;93298.06;4961333;28;20132;-88
2021/12/14 05:21:01;;;;;;;1.05;0.63;;;;;;;2.27;73.59;93288.78;4977161;28;20042;-88
2021/12/14 05:23:53;;;;;;;3.47;1.00;;;;;;;2.27;73.93;93289.59;4989202;28;20490;-88
2021/12/14 05:26:37;;;;;;;;;;;;;;;;;;;;;
2021/12/14 05:29:29;;;;;;;1.15;0.80;;;;;;;2.39;73.60;93322.47;4993260;28;20042;-88
2021/12/14 05:32:18;;;;;;;1.45;0.90;;;;;;;2.21;73.95;93300.00;4961209;28;20520;-88
2021/12/14 05:35:01;;;;;;;0.98;0.70;;;;;;;2.49;73.88;93348.59;4976843;28;20120;-87
2021/12/14 05:37:44;;;;;;;;;;;;;;;;;;;;;
2021/12/14 05:40:44;;;;;;;0.82;0.70;;;;;;;2.19;74.14;93307.94;4965500;28;20050;-88
2021/12/14 05:43:29;;;;;;;1.27;0.88;;;;;;;2.15;74.07;93309.38;4994213;28;20057;-87
2021/12/14 05:46:36;;;;;;;;;;;;;;;;;;;;;
2021/12/14 05:49:37;;;;;;;1.40;0.90;;;;;;;2.34;73.86;93319.72;4980780;28;20077;-87
2021/12/14 05:52:26;;;;;;;;;;;;;;;;;;;;;
2021/12/14 05:54:57;;;;;;;1.05;0.68;;;;;;;2.56;72.85;93333.00;4973721;28;20121;-87
2021/12/14 05:57:43;;;;;;;;;;;;;;;;;;;;;
2021/12/14 06:00:43;;;;;;;;;;;;;;;;;;;;;
2021/12/14 06:03:45;;;;;;;;;;;;;;;;;;;;;
2021/12/14 06:07:05;;;;;;;;;;;;;;;;;;;;;
2021/12/14 06:09:46;;;;;;;;;;;;;;;;;;;;;
2021/12/14 06:13:39;;;;;;;;;;;;;;;;;;;;;
2021/12/14 06:16:04;;;;;;;;;;;;;;;;;;;;;
2021/12/14 06:19:20;;;;;;;1.33;0.90;;;;;;;2.21;71.35;93318.84;4991903;28;20398;-88
2021/12/14 06:22:19;;;;;;;0.98;0.70;;;;;;;2.59;72.04;93379.09;4995977;28;20038;-87
2021/12/14 06:25:11;;;;;;;;;;;;;;;;;;;;;
2021/12/14 06:28:09;;;;;;;;;;;;;;;;;;;;;
2021/12/14 06:30:52;;;;;;;1.95;1.00;;;;;;;2.24;72.45;93333.13;4993994;28;20046;-87
2021/12/14 06:33:21;;;;;;;2.17;1.08;;;;;;;2.45;72.34;93352.59;4978154;28;20046;-87
2021/12/14 06:36:00;;;;;;;2.90;1.50;;;;;;;2.25;72.39;93319.19;4978873;28;20026;-86
2021/12/14 06:39:00;;;;;;;3.00;1.55;;;;;;;2.64;72.93;93372.28;4963324;28;20479;-88
2021/12/14 06:41:38;;;;;;;2.67;1.35;;;;;;;2.22;73.21;93312.66;4954402;28;20081;-87
2021/12/14 06:44:18;;;;;;;4.35;1.15;;;;;;;2.65;72.66;93371.25;4975034;28;20070;-88
2021/12/14 06:46:59;;;;;;;1.63;1.00;;;;;;;2.66;73.26;93370.28;4959182;28;20042;-87
2021/12/14 06:50:09;;;;;;;2.03;1.08;;;;;;;2.38;72.33;93326.81;4980103;28;20048;-88
2021/12/14 06:52:58;;;;;;;1.75;1.17;;;;;;;2.25;72.00;93314.84;4977301;28;20034;-87
2021/12/14 06:55:54;;;;;;;3.25;1.52;;;;;;;2.33;71.57;93329.25;4980067;28;20050;-86
2021/12/14 06:58:54;;;;;;;0.93;0.77;;;;;;;2.36;71.31;93335.78;4973749;28;20118;-87
2021/12/14 07:04:55;;;;;;;1.52;1.00;;;;;;;2.63;71.57;93370.69;4996234;28;20043;-88
2021/12/14 07:07:26;;;;;;;1.33;0.90;;;;;;;2.75;70.81;93391.47;4944703;28;20093;-86
2021/12/14 07:10:00;;;;;;;1.15;0.80;;;;;;;2.71;70.63;93385.16;4994170;28;20042;-87
2021/12/14 07:12:33;;;;;;;2.33;1.00;;;;;;;2.79;70.50;93392.63;4993612;28;20030;-87
2021/12/14 07:15:01;;;;;;;0.93;0.73;;;;;;;2.81;70.53;93395.75;4995585;28;20030;-86
2021/12/14 07:17:31;;;;;;;2.08;1.00;;;;;;;2.85;71.09;93396.13;4979545;28;20030;-87
2021/12/14 07:20:06;;;;;;;1.08;0.60;;;;;;;2.77;70.65;93378.31;5002650;28;20157;-87
2021/12/14 07:22:38;;;;;;;0.95;0.70;;;;;;;3.19;69.83;93394.72;5032518;28;20037;-94
2021/12/14 07:25:08;;;;;;;1.35;1.00;;;;;;;4.87;67.24;93404.13;4999769;28;20038;-87
2021/12/14 07:27:39;;;;;;;1.00;0.90;;;;;;;7.66;60.02;93394.91;4997047;28;20108;-86
2021/12/14 07:30:22;;;;;;;1.10;1.00;;;;;;;9.99;52.60;93381.09;4997041;28;20446;-86
2021/12/14 07:33:11;;;;;;;1.00;0.80;;;;;;;11.94;46.12;93383.31;5007806;28;20046;-86
2021/12/14 07:36:10;;;;;;;1.58;1.00;;;;;;;13.91;42.45;93388.72;4992954;28;20042;-86
2021/12/14 07:38:40;;;;;;;6.32;1.10;;;;;;;15.28;37.71;93391.31;4993133;28;20525;-86
2021/12/14 07:41:23;;;;;;;1.20;0.82;;;;;;;16.42;35.98;93384.16;4993270;28;20045;-87
2021/12/14 07:43:51;;;;;;;1.73;1.13;;;;;;;17.32;33.12;93375.34;5009758;28;20089;-86
2021/12/14 07:47:00;;;;;;;1.77;0.90;;;;;;;18.49;31.58;93386.31;4977116;28;20113;-88
2021/12/14 07:49:54;;;;;;;1.35;0.90;;;;;;;19.61;28.95;93375.69;4982033;28;20049;-87
2021/12/14 07:52:23;;;;;;;1.45;1.05;;;;;;;20.65;27.75;93384.88;4993012;28;20049;-86
2021/12/14 07:54:56;;;;;;;1.88;1.05;;;;;;;21.46;27.24;93374.66;4994083;28;20434;-86
2021/12/14 07:57:24;;;;;;;1.85;1.00;;;;;;;22.28;25.99;93382.50;4993277;28;20046;-87
2021/12/14 07:59:51;;;;;;;2.53;1.33;;;;;;;22.91;24.13;93389.94;4992750;28;20034;-87
2021/12/14 08:02:27;;;;;;;2.30;1.10;;;;;;;23.44;23.80;93395.09;4992539;28;20050;-87
2021/12/14 08:05:11;;;;;;;1.23;0.80;;;;;;;22.63;23.76;93382.72;4960492;28;20053;-88
2021/12/14 08:07:44;;;;;;;1.58;1.02;;;;;;;21.38;25.12;93394.94;4973197;28;20030;-87
2021/12/14 08:10:15;;;;;;;2.38;1.20;;;;;;;19.65;27.16;93388.00;4956970;28;20062;-87
2021/12/14 08:12:46;;;;;;;1.58;0.90;;;;;;;17.68;30.28;93398.97;4974399;28;20054;-86
2021/12/14 08:15:30;;;;;;;3.38;1.27;;;;;;;15.99;33.49;93407.59;4973803;28;20039;-86
2021/12/14 08:18:15;;;;;;;1.67;0.90;;;;;;;15.80;33.68;93402.44;4972726;28;20034;-87
2021/12/14 08:20:48;;;;;;;4.97;1.30;;;;;;;16.19;32.80;93395.81;4989389;28;20066;-87
2021/12/14 08:23:28;;;;;;;1.73;1.10;;;;;;;17.62;30.81;93339.31;4989519;28;20049;-87
2021/12/14 08:25:59;;;;;;;2.10;1.30;;;;;;;19.77;28.11;93390.03;4974508;28;20077;-87
2021/12/14 08:28:26;;;;;;;1.83;0.95;;;;;;;19.11;28.43;93393.84;4973100;28;20042;-87
2021/12/14 08:30:59;;;;;;;1.52;1.00;;;;;;;18.17;29.00;93388.34;4973042;28;20034;-88
2021/12/14 08:33:27;;;;;;;4.82;1.58;;;;;;;17.20;31.01;93385.72;4974363;28;20038;-87
2021/12/14 08:35:57;;;;;;;3.63;1.50;;;;;;;16.09;32.80;93382.81;4972997;28;20105;-86
2021/12/14 08:38:25;;;;;;;5.95;2.20;;;;;;;15.53;34.74;93388.16;4984218;28;20040;-87
2021/12/14 08:40:56;;;;;;;2.88;1.35;;;;;;;15.96;34.61;93385.22;4992062;28;20077;-87
2021/12/14 08:43:34;;;;;;;2.38;1.10;;;;;;;17.00;32.59;93376.44;4992536;28;20137;-86
2021/12/14 08:46:09;;;;;;;2.45;1.10;;;;;;;18.09;30.55;93405.78;4992266;28;20042;-87
2021/12/14 08:48:42;;;;;;;2.88;1.17;;;;;;;17.25;30.80;93357.28;4975990;28;20400;-88
2021/12/14 08:51:20;;;;;;;1.83;1.00;;;;;;;16.28;32.68;93398.50;4976049;28;20046;-87
2021/12/14 08:54:16;;;;;;;1.73;1.00;;;;;;;15.08;34.86;93411.69;4991964;28;20042;-86
2021/12/14 08:56:56;;;;;;;1.98;1.10;;;;;;;13.67;38.03;93377.50;4991644;28;20129;-87
2021/12/14 08:59:26;;;;;;;1.88;0.90;;;;;;;13.30;39.37;93415.78;4975568;28;20042;-88
2021/12/14 09:01:55;;;;;;;2.67;1.40;;;;;;;12.66;40.93;93394.81;4991290;28;20125;-86
2021/12/14 09:04:30;;;;;;;3.63;1.83;;;;;;;12.29;41.87;93385.69;4991730;28;20042;-86
2021/12/14 09:07:11;;;;;;;3.28;1.30;;;;;;;12.04;42.24;93377.97;4991733;28;20088;-86
2021/12/14 09:09:41;;;;;;;2.38;1.23;;;;;;;11.80;42.85;93372.59;4959830;28;20502;-86
2021/12/14 09:12:36;;;;;;;1.90;0.90;;;;;;;12.01;42.77;93428.38;4991997;28;20046;-87
2021/12/14 09:15:19;;;;;;;1.90;1.00;;;;;;;11.64;43.93;93405.97;4962991;28;20069;-86
2021/12/14 09:17:46;;;;;;;2.40;1.15;;;;;;;11.59;43.29;93411.25;4991434;28;20039;-86
2021/12/14 09:20:29;;;;;;;4.80;1.17;;;;;;;11.54;42.21;93421.75;4991985;28;20030;-88
2021/12/14 09:23:10;;;;;;;2.17;1.10;;;;;;;11.28;42.73;93393.03;4975164;28;20042;-86
2021/12/14 09:25:43;;;;;;;2.25;1.25;;;;;;;11.35;42.93;93406.63;4991820;28;20115;-87
2021/12/14 09:28:09;;;;;;;;;;;;;;;11.50;42.64;93426.75;4992290;28;20071;-86
2021/12/14 09:30:42;;;;;;;1.88;1.10;;;;;;;11.41;42.80;93420.50;4991673;28;19968;-86
2021/12/14 09:33:08;;;;;;;1.83;1.00;;;;;;;11.31;43.70;93402.97;4991817;28;20084;-86
2021/12/14 09:35:43;;;;;;;2.60;1.15;;;;;;;11.41;43.15;93412.63;4991160;28;20038;-86
2021/12/14 09:38:17;;;;;;;4.28;1.60;;;;;;;11.32;43.99;93409.78;4993088;28;20045;-87
2021/12/14 09:40:50;;;;;;;1.73;1.10;;;;;;;11.14;44.40;93395.41;4991315;28;20491;-86
2021/12/14 09:43:20;;;;;;;1.67;0.90;;;;;;;11.14;44.11;93407.75;4975994;28;20455;-87
2021/12/14 09:45:53;;;;;;;0.98;0.73;;;;;;;11.02;42.88;93400.94;4975543;28;20074;-87
2021/12/14 09:48:34;;;;;;;1.73;1.02;;;;;;;10.88;42.89;93375.59;4944145;28;20518;-86
2021/12/14 09:51:07;;;;;;;0.95;0.80;;;;;;;10.76;43.61;93366.19;4994481;28;20483;-86
2021/12/14 09:53:45;;;;;;;2.53;1.17;;;;;;;10.92;43.51;93411.47;4996118;28;20045;-86
2021/12/14 09:56:25;;;;;;;2.08;1.08;;;;;;;10.58;44.71;93378.00;4994839;28;20687;-86
2021/12/14 09:58:59;;;;;;;1.42;0.80;;;;;;;10.51;45.47;93382.69;4994831;28;20047;-86
2021/12/14 10:01:34;;;;;;;1.17;0.88;;;;;;;10.62;45.00;93407.81;4994644;28;20050;-86
2021/12/14 10:04:06;;;;;;;2.97;1.08;;;;;;;10.30;45.40;93373.31;4978590;28;20137;-86
2021/12/14 10:06:36;;;;;;;2.63;1.33;;;;;;;10.52;46.25;93413.09;4994985;28;20038;-87
2021/12/14 10:09:13;;;;;;;1.67;1.00;;;;;;;10.55;46.41;93417.78;4994820;28;20033;-87
2021/12/14 10:14:34;;;;;;;2.15;1.25;;;;;;;10.45;47.30;93390.81;4994773;28;20093;-86
2021/12/14 10:17:05;;;;;;;1.85;0.90;;;;;;;10.29;47.51;93356.81;4978864;28;20061;-86
2021/12/14 10:19:32;;;;;;;2.83;1.13;;;;;;;10.52;47.88;93386.13;4959143;28;20038;-86
2021/12/14 10:22:08;;;;;;;5.30;0.80;;;;;;;10.54;47.49;93378.78;4975211;28;20030;-86
2021/12/14 10:24:34;;;;;;;3.20;1.35;;;;;;;10.67;46.82;93356.50;4974941;28;20038;-86
2021/12/14 10:27:21;;;;;;;1.80;0.85;;;;;;;11.17;44.71;93373.94;4958611;28;20042;-87
2021/12/14 10:29:48;;;;;;;1.27;0.85;;;;;;;11.73;41.82;93375.53;4975555;28;20138;-87
2021/12/14 10:32:22;;;;;;;0.82;0.70;;;;;;;11.78;40.77;93338.00;4974457;28;20391;-87
2021/12/14 10:35:01;;;;;;;3.65;1.75;;;;;;;11.98;43.43;93344.94;4973735;28;20385;-87
2021/12/14 10:38:13;;;;;;;5.03;1.90;;;;;;;12.60;44.50;93372.28;4991232;28;20046;-86
2021/12/14 10:43:20;;;;;;;10.10;3.85;;;;;;;13.24;39.34;93351.94;4991258;28;20043;-90
2021/12/14 10:46:10;;;;;;;5.00;2.10;;;;;;;13.64;37.71;93378.03;4991468;28;20041;-87
2021/12/14 10:48:43;;;;;;;2.05;1.20;;;;;;;13.29;36.26;93333.50;4959601;28;20082;-86
2021/12/14 10:51:17;;;;;;;1.42;0.80;;;;;;;13.85;35.97;93366.19;4995012;28;20095;-86
2021/12/14 10:53:52;;;;;;;1.48;0.90;;;;;;;14.22;35.43;93385.66;4995313;28;20093;-87
2021/12/14 10:56:34;;;;;;;;;;;;;;;;;;;;;
2021/12/14 10:59:08;;;;;;;5.10;1.90;;;;;;;13.21;41.86;93328.03;4985628;28;20069;-93
2021/12/14 11:01:35;;;;;;;13.15;3.55;;;;;;;12.91;41.70;93328.09;5014742;28;20034;-95
2021/12/14 11:04:16;;;;;;;8.68;3.40;;;;;;;12.89;43.25;93367.00;5033550;28;20049;-95
2021/12/14 11:06:50;;;;;;;11.32;3.78;;;;;;;12.98;42.83;93361.94;4998490;28;20042;-86
2021/12/14 11:09:40;;;;;;;4.25;1.88;;;;;;;12.65;42.00;93324.97;4998854;28;20037;-86
2021/12/14 11:12:31;;;;;;;2.95;1.48;;;;;;;12.82;41.55;93352.66;4978567;28;20045;-86
2021/12/14 11:15:18;;;;;;;2.25;1.30;;;;;;;12.68;40.37;93306.03;4993562;28;20088;-87
2021/12/14 11:18:09;;;;;;;2.42;1.08;;;;;;;13.06;38.79;93350.81;4993677;28;20069;-86
2021/12/14 11:20:57;;;;;;;2.47;1.25;;;;;;;13.21;38.90;93356.97;4977993;28;20042;-87
2021/12/14 11:23:39;;;;;;;1.60;0.98;;;;;;;13.01;38.88;93302.78;4995355;28;20042;-86
2021/12/14 11:26:27;;;;;;;1.88;1.10;;;;;;;13.38;39.35;93354.69;4994040;28;20034;-86
2021/12/14 11:28:56;;;;;;;3.85;1.10;;;;;;;12.85;39.42;93289.81;4995419;28;20039;-87
2021/12/14 11:31:37;;;;;;;2.45;1.10;;;;;;;12.71;39.15;93281.81;4961426;28;20061;-86
2021/12/14 11:34:17;;;;;;;1.58;0.80;;;;;;;12.56;39.36;93284.59;4994775;28;20088;-86
2021/12/14 11:36:54;;;;;;;1.80;1.10;;;;;;;12.51;40.82;93303.03;4961071;28;20034;-86
2021/12/14 11:39:30;;;;;;;2.53;1.20;;;;;;;12.29;40.26;93299.06;4994823;28;20077;-86
2021/12/14 11:42:12;;;;;;;1.95;1.23;;;;;;;12.19;42.77;93312.25;4976405;28;20041;-87
2021/12/14 11:45:06;;;;;;;4.57;2.05;;;;;;;12.06;45.26;93321.53;4977596;28;20117;-87
2021/12/14 11:47:46;;;;;;;3.15;1.55;;;;;;;11.74;44.94;93290.53;5006179;28;20626;-86
2021/12/14 11:50:23;;;;;;;3.75;1.83;;;;;;;11.49;44.46;93272.34;4992633;28;20049;-87
2021/12/14 11:53:02;;;;;;;6.43;2.30;;;;;;;11.51;45.58;93327.91;4992849;28;20030;-86
2021/12/14 11:55:34;;;;;;;5.53;2.42;;;;;;;11.03;44.48;93297.75;5009132;28;20097;-87
2021/12/14 11:58:08;;;;;;;3.97;2.38;;;;;;;10.73;46.53;93276.88;4976539;28;20066;-86
2021/12/14 12:00:43;;;;;;;5.25;2.30;;;;;;;10.93;46.89;93323.97;4994104;28;20038;-87
2021/12/14 12:03:35;;;;;;;3.60;1.77;;;;;;;10.90;47.87;93329.75;4989353;28;20484;-87
2021/12/14 12:09:28;;;;;;;7.55;1.92;;;;;;;11.02;47.31;93335.47;4973522;28;20483;-87
2021/12/14 12:12:03;;;;;;;5.05;2.30;;;;;;;11.09;48.23;93331.78;4987450;28;20426;-87
2021/12/14 12:14:35;;;;;;;4.70;2.40;;;;;;;11.31;48.79;93324.34;4989537;28;20101;-87
2021/12/14 12:17:34;;;;;;;1.83;1.20;;;;;;;12.17;46.50;93314.38;4989386;28;20038;-87
2021/12/14 12:20:19;;;;;;;5.72;1.33;;;;;;;13.24;39.28;93309.88;4953487;29;20062;-88
2021/12/14 12:22:56;;;;;;;7.25;1.08;;;;;;;13.69;37.16;93294.56;4969504;28;20035;-87
2021/12/14 12:25:31;;;;;;;1.33;0.77;;;;;;;13.61;35.75;93302.31;4970087;28;20093;-86
2021/12/14 12:28:01;;;;;;;4.35;1.88;;;;;;;13.53;39.85;93296.63;4953351;28;20037;-87
2021/12/14 12:30:34;;;;;;;3.08;1.80;;;;;;;13.91;39.89;93296.59;4954643;29;20046;-87
2021/12/14 12:33:12;;;;;;;5.28;2.05;;;;;;;14.57;40.60;93284.25;4953489;29;20047;-86
2021/12/14 12:35:49;;;;;;;3.85;2.10;;;;;;;15.56;36.58;93284.69;4953684;29;20499;-88
2021/12/14 12:38:47;;;;;;;1.95;1.20;;;;;;;16.21;31.93;93266.84;4940202;28;20053;-87
2021/12/14 12:41:32;;;;;;;5.28;2.10;;;;;;;16.12;35.79;93279.22;4928998;28;20105;-87
2021/12/14 12:44:05;;;;;;;3.50;1.90;;;;;;;15.35;35.98;93265.84;4974150;28;20442;-87
2021/12/14 12:46:43;;;;;;;4.65;1.92;;;;;;;15.40;36.26;93264.94;4956866;28;20041;-87
2021/12/14 12:49:15;;;;;;;4.53;2.42;;;;;;;14.43;37.47;93258.91;4956764;28;20039;-87
2021/12/14 12:51:43;;;;;;;4.15;2.10;;;;;;;14.68;37.22;93269.03;4957035;28;20057;-87
2021/12/14 12:54:47;;;;;;;9.57;3.92;;;;;;;14.60;37.56;93267.06;4972467;28;20070;-87
2021/12/14 12:57:35;;;;;;;5.75;2.55;;;;;;;14.93;36.94;93270.41;4953760;28;20059;-87
2021/12/14 13:00:22;;;;;;;10.57;4.20;;;;;;;15.42;34.86;93262.81;4973738;28;20069;-88
2021/12/14 13:03:08;;;;;;;5.30;2.42;;;;;;;15.57;33.46;93259.06;4987970;28;20046;-90
2021/12/14 13:05:46;;;;;;;3.90;1.92;;;;;;;14.94;35.33;93268.53;4993740;28;20042;-87
2021/12/14 13:08:23;;;;;;;5.50;2.75;;;;;;;14.64;37.89;93262.78;4992210;28;20100;-86
2021/12/14 13:11:07;;;;;;;4.93;2.55;;;;;;;14.78;36.81;93262.78;4991918;28;20070;-87
2021/12/14 13:13:41;;;;;;;3.30;1.60;;;;;;;15.40;34.49;93251.75;4992915;28;20042;-88
2021/12/14 13:16:12;;;;;;;4.15;1.90;;;;;;;15.99;33.46;93255.22;4991487;28;20495;-87
2021/12/14 13:18:40;;;;;;;7.57;2.67;;;;;;;16.40;31.12;93254.22;4975977;28;20034;-87
2021/12/14 13:21:20;;;;;;;4.35;2.20;;;;;;;15.87;33.50;93256.84;4991890;28;20549;-87
2021/12/14 13:23:59;;;;;;;3.15;1.75;;;;;;;14.93;34.76;93244.03;5004923;28;20125;-92
2021/12/14 13:26:44;;;;;;;11.63;4.00;;;;;;;14.62;35.34;93245.69;4979515;28;20480;-87
2021/12/14 13:29:12;;;;;;;7.30;1.60;;;;;;;14.80;37.17;93252.72;4979460;28;20038;-86
2021/12/14 13:31:47;;;;;;;2.60;1.40;;;;;;;14.78;37.17;93253.00;4992318;28;20085;-87
2021/12/14 13:34:28;;;;;;;2.78;1.45;;;;;;;15.25;36.96;93238.94;4995905;28;20066;-87
2021/12/14 13:36:55;;;;;;;5.28;1.40;;;;;;;15.78;35.66;93238.28;4995926;28;20046;-86
2021/12/14 13:39:21;;;;;;;2.95;1.30;;;;;;;16.11;34.26;93245.97;4995335;28;20041;-86
2021/12/14 13:42:07;;;;;;;3.05;1.35;;;;;;;16.34;33.02;93233.50;4995380;28;20039;-89
2021/12/14 13:44:43;;;;;;;1.45;1.00;;;;;;;16.64;32.57;93245.16;4995814;28;20046;-87
2021/12/14 13:47:11;;;;;;;3.03;1.33;;;;;;;16.96;31.26;93238.78;4996949;28;20035;-87
2021/12/14 13:49:40;;;;;;;1.90;1.02;;;;;;;17.16;31.93;93232.13;4995785;28;20494;-87
2021/12/14 13:52:11;;;;;;;2.55;1.25;;;;;;;17.22;29.83;93216.88;4995381;28;20026;-87
2021/12/14 13:55:05;;;;;;;3.30;1.25;;;;;;;17.41;30.27;93233.25;4991831;28;20043;-87
2021/12/14 13:57:32;;;;;;;3.78;1.58;;;;;;;16.95;30.54;93241.72;4973487;28;20038;-87
2021/12/14 14:00:00;;;;;;;6.38;2.60;;;;;;;15.67;32.38;93221.91;4978938;28;20117;-86
2021/12/14 14:02:26;;;;;;;6.07;2.70;;;;;;;15.26;33.87;93238.59;4981812;28;20407;-86
2021/12/14 14:04:52;;;;;;;6.95;2.60;;;;;;;14.75;34.07;93234.38;4981473;28;20044;-87
2021/12/14 14:07:18;;;;;;;5.55;2.58;;;;;;;14.23;36.53;93229.25;4998625;28;20430;-86
2021/12/14 14:09:44;;;;;;;4.00;1.83;;;;;;;14.09;37.77;93223.91;4998293;28;20037;-87
2021/12/14 14:12:14;;;;;;;8.45;2.00;;;;;;;14.29;38.01;93249.13;4981599;28;20088;-86
2021/12/14 14:14:42;;;;;;;3.60;1.73;;;;;;;13.97;38.74;93241.25;4986978;28;20043;-86
2021/12/14 14:17:18;;;;;;;3.90;2.00;;;;;;;13.97;39.99;93251.78;4965394;28;20475;-86
2021/12/14 14:19:48;;;;;;;2.38;1.33;;;;;;;13.79;39.53;93251.53;4969059;28;20042;-86
2021/12/14 14:22:23;;;;;;;3.05;1.50;;;;;;;13.70;38.84;93232.19;5015372;28;20410;-87
2021/12/14 14:25:00;;;;;;;2.65;1.30;;;;;;;14.14;37.40;93252.03;5014927;28;20068;-86
2021/12/14 14:27:28;;;;;;;2.70;1.40;;;;;;;14.30;37.39;93252.56;4997822;28;20073;-88
2021/12/14 14:29:54;;;;;;;3.95;1.42;;;;;;;14.32;37.45;93253.84;4961763;28;20068;-86
2021/12/14 14:32:26;;;;;;;2.97;1.50;;;;;;;14.31;37.55;93251.47;4981295;28;20069;-86